sensor_id;sensor_type;location;lat;lon;timestamp;pressure;altitude;pressure_sealevel;temperature
63297;BMP280;49419;51.716;-4.948;2023-02-05T00:01:00;104018.13;;;9.87
63297;BMP280;49419;51.716;-4.948;2023-02-05T00:03:25;104023.72;;;9.83
63297;BMP280;49419;51.716;-4.948;2023-02-05T00:05:51;104017.03;;;9.75
63297;BMP280;49419;51.716;-4.948;2023-02-05T00:08:16;104012.50;;;9.73
63297;BMP280;49419;51.716;-4.948;2023-02-05T00:10:42;104024.03;;;9.68
63297;BMP280;49419;51.716;-4.948;2023-02-05T00:13:07;104033.38;;;9.67
63297;BMP280;49419;51.716;-4.948;2023-02-05T00:15:34;104029.78;;;9.65
63297;BMP280;49419;51.716;-4.948;2023-02-05T00:18:00;104026.19;;;9.63
63297;BMP280;49419;51.716;-4.948;2023-02-05T00:20:27;104040.66;;;9.63
63297;BMP280;49419;51.716;-4.948;2023-02-05T00:22:52;104052.28;;;9.60
63297;BMP280;49419;51.716;-4.948;2023-02-05T00:25:20;104063.19;;;9.57
63297;BMP280;49419;51.716;-4.948;2023-02-05T00:27:46;104084.47;;;9.56
63297;BMP280;49419;51.716;-4.948;2023-02-05T00:30:11;104096.09;;;9.53
63297;BMP280;49419;51.716;-4.948;2023-02-05T00:32:37;104087.09;;;9.48
63297;BMP280;49419;51.716;-4.948;2023-02-05T00:35:02;104073.72;;;9.42
63297;BMP280;49419;51.716;-4.948;2023-02-05T00:37:30;104069.81;;;9.37
63297;BMP280;49419;51.716;-4.948;2023-02-05T00:39:56;104072.69;;;9.31
63297;BMP280;49419;51.716;-4.948;2023-02-05T00:42:22;104059.16;;;9.24
63297;BMP280;49419;51.716;-4.948;2023-02-05T00:44:47;104048.63;;;9.21
63297;BMP280;49419;51.716;-4.948;2023-02-05T00:47:13;104055.28;;;9.19
63297;BMP280;49419;51.716;-4.948;2023-02-05T00:49:39;104067.34;;;9.20
63297;BMP280;49419;51.716;-4.948;2023-02-05T00:52:04;104060.41;;;9.19
63297;BMP280;49419;51.716;-4.948;2023-02-05T00:54:30;104050.91;;;9.18
63297;BMP280;49419;51.716;-4.948;2023-02-05T00:56:55;104057.56;;;9.16
63297;BMP280;49419;51.716;-4.948;2023-02-05T00:59:21;104085.91;;;9.18
63297;BMP280;49419;51.716;-4.948;2023-02-05T01:01:47;104097.06;;;9.18
63297;BMP280;49419;51.716;-4.948;2023-02-05T01:04:12;104071.16;;;9.15
63297;BMP280;49419;51.716;-4.948;2023-02-05T01:06:37;104083.97;;;9.15
63297;BMP280;49419;51.716;-4.948;2023-02-05T01:09:03;104094.06;;;9.14
63297;BMP280;49419;51.716;-4.948;2023-02-05T01:11:30;104127.22;;;9.12
63297;BMP280;49419;51.716;-4.948;2023-02-05T01:13:55;104120.94;;;9.09
63297;BMP280;49419;51.716;-4.948;2023-02-05T01:16:20;104103.31;;;9.03
63297;BMP280;49419;51.716;-4.948;2023-02-05T01:18:47;104092.00;;;9.01
63297;BMP280;49419;51.716;-4.948;2023-02-05T01:21:13;104107.13;;;8.98
63297;BMP280;49419;51.716;-4.948;2023-02-05T01:23:38;104079.09;;;8.92
63297;BMP280;49419;51.716;-4.948;2023-02-05T01:26:05;104086.34;;;8.87
63297;BMP280;49419;51.716;-4.948;2023-02-05T01:28:31;104077.59;;;8.85
63297;BMP280;49419;51.716;-4.948;2023-02-05T01:30:58;104067.97;;;8.74
63297;BMP280;49419;51.716;-4.948;2023-02-05T01:33:23;104074.94;;;8.67
63297;BMP280;49419;51.716;-4.948;2023-02-05T01:35:49;104069.69;;;8.66
63297;BMP280;49419;51.716;-4.948;2023-02-05T01:38:14;104081.28;;;8.62
63297;BMP280;49419;51.716;-4.948;2023-02-05T01:40:40;104062.28;;;8.60
63297;BMP280;49419;51.716;-4.948;2023-02-05T01:43:15;104059.94;;;8.53
63297;BMP280;49419;51.716;-4.948;2023-02-05T01:45:46;104046.97;;;8.52
63297;BMP280;49419;51.716;-4.948;2023-02-05T01:48:17;104060.84;;;8.45
63297;BMP280;49419;51.716;-4.948;2023-02-05T01:50:45;104068.41;;;8.35
63297;BMP280;49419;51.716;-4.948;2023-02-05T01:53:19;104078.78;;;8.29
63297;BMP280;49419;51.716;-4.948;2023-02-05T01:55:51;104078.06;;;8.21
63297;BMP280;49419;51.716;-4.948;2023-02-05T01:58:18;104082.00;;;8.18
63297;BMP280;49419;51.716;-4.948;2023-02-05T02:00:45;104073.09;;;8.14
63297;BMP280;49419;51.716;-4.948;2023-02-05T02:03:12;104080.19;;;8.08
63297;BMP280;49419;51.716;-4.948;2023-02-05T02:05:38;104072.63;;;8.10
63297;BMP280;49419;51.716;-4.948;2023-02-05T02:08:06;104075.19;;;8.10
63297;BMP280;49419;51.716;-4.948;2023-02-05T02:10:32;104091.31;;;8.09
63297;BMP280;49419;51.716;-4.948;2023-02-05T02:12:58;104083.47;;;7.99
63297;BMP280;49419;51.716;-4.948;2023-02-05T02:15:26;104123.78;;;7.93
63297;BMP280;49419;51.716;-4.948;2023-02-05T02:18:02;104106.03;;;7.86
63297;BMP280;49419;51.716;-4.948;2023-02-05T02:30:22;104152.38;;;7.72
63297;BMP280;49419;51.716;-4.948;2023-02-05T02:32:56;104136.72;;;7.69
63297;BMP280;49419;51.716;-4.948;2023-02-05T02:35:48;104153.38;;;7.66
63297;BMP280;49419;51.716;-4.948;2023-02-05T02:41:45;104160.84;;;7.48
63297;BMP280;49419;51.716;-4.948;2023-02-05T02:43:58;104188.66;;;7.45
63297;BMP280;49419;51.716;-4.948;2023-02-05T02:49:04;104208.06;;;7.43
63297;BMP280;49419;51.716;-4.948;2023-02-05T02:51:41;104196.22;;;7.43
63297;BMP280;49419;51.716;-4.948;2023-02-05T02:54:12;104196.47;;;7.38
63297;BMP280;49419;51.716;-4.948;2023-02-05T02:56:40;104207.63;;;7.38
63297;BMP280;49419;51.716;-4.948;2023-02-05T02:59:29;104235.41;;;7.36
63297;BMP280;49419;51.716;-4.948;2023-02-05T03:02:06;104250.91;;;7.37
63297;BMP280;49419;51.716;-4.948;2023-02-05T03:04:38;104241.44;;;7.36
63297;BMP280;49419;51.716;-4.948;2023-02-05T03:07:14;104236.31;;;7.36
63297;BMP280;49419;51.716;-4.948;2023-02-05T03:10:17;104227.91;;;7.37
63297;BMP280;49419;51.716;-4.948;2023-02-05T03:12:57;104212.66;;;7.30
63297;BMP280;49419;51.716;-4.948;2023-02-05T03:15:42;104231.94;;;7.35
63297;BMP280;49419;51.716;-4.948;2023-02-05T03:18:13;104224.69;;;7.31
63297;BMP280;49419;51.716;-4.948;2023-02-05T03:21:16;104236.25;;;7.28
63297;BMP280;49419;51.716;-4.948;2023-02-05T03:24:09;104232.50;;;7.24
63297;BMP280;49419;51.716;-4.948;2023-02-05T03:26:35;104237.44;;;7.23
63297;BMP280;49419;51.716;-4.948;2023-02-05T03:29:10;104240.16;;;7.24
63297;BMP280;49419;51.716;-4.948;2023-02-05T03:31:56;104240.00;;;7.23
63297;BMP280;49419;51.716;-4.948;2023-02-05T03:40:32;104252.72;;;7.14
63297;BMP280;49419;51.716;-4.948;2023-02-05T03:45:51;104276.16;;;7.10
63297;BMP280;49419;51.716;-4.948;2023-02-05T03:49:02;104293.28;;;7.11
63297;BMP280;49419;51.716;-4.948;2023-02-05T03:51:45;104300.75;;;7.02
63297;BMP280;49419;51.716;-4.948;2023-02-05T03:57:31;104286.25;;;6.94
63297;BMP280;49419;51.716;-4.948;2023-02-05T04:00:25;104303.88;;;6.99
63297;BMP280;49419;51.716;-4.948;2023-02-05T04:03:05;104289.53;;;6.93
63297;BMP280;49419;51.716;-4.948;2023-02-05T04:05:31;104281.34;;;6.80
63297;BMP280;49419;51.716;-4.948;2023-02-05T04:08:09;104280.22;;;6.70
63297;BMP280;49419;51.716;-4.948;2023-02-05T04:10:35;104281.69;;;6.68
63297;BMP280;49419;51.716;-4.948;2023-02-05T04:13:02;104284.16;;;6.59
63297;BMP280;49419;51.716;-4.948;2023-02-05T04:15:32;104308.22;;;6.61
63297;BMP280;49419;51.716;-4.948;2023-02-05T04:18:00;104302.97;;;6.60
63297;BMP280;49419;51.716;-4.948;2023-02-05T04:20:36;104282.13;;;6.48
63297;BMP280;49419;51.716;-4.948;2023-02-05T04:23:01;104298.28;;;6.41
63297;BMP280;49419;51.716;-4.948;2023-02-05T04:25:31;104296.94;;;6.29
63297;BMP280;49419;51.716;-4.948;2023-02-05T04:27:57;104288.34;;;6.28
63297;BMP280;49419;51.716;-4.948;2023-02-05T04:30:23;104297.78;;;6.36
63297;BMP280;49419;51.716;-4.948;2023-02-05T04:32:52;104292.09;;;6.39
63297;BMP280;49419;51.716;-4.948;2023-02-05T04:35:29;104305.81;;;6.47
63297;BMP280;49419;51.716;-4.948;2023-02-05T04:37:58;104298.66;;;6.52
63297;BMP280;49419;51.716;-4.948;2023-02-05T04:40:24;104290.19;;;6.60
63297;BMP280;49419;51.716;-4.948;2023-02-05T04:42:57;104289.63;;;6.62
63297;BMP280;49419;51.716;-4.948;2023-02-05T04:45:40;104304.50;;;6.66
63297;BMP280;49419;51.716;-4.948;2023-02-05T04:48:06;104303.59;;;6.66
63297;BMP280;49419;51.716;-4.948;2023-02-05T04:50:36;104295.88;;;6.57
63297;BMP280;49419;51.716;-4.948;2023-02-05T04:53:02;104304.53;;;6.51
63297;BMP280;49419;51.716;-4.948;2023-02-05T04:55:29;104310.03;;;6.47
63297;BMP280;49419;51.716;-4.948;2023-02-05T04:57:56;104320.81;;;6.44
63297;BMP280;49419;51.716;-4.948;2023-02-05T05:00:23;104324.44;;;6.46
63297;BMP280;49419;51.716;-4.948;2023-02-05T05:02:49;104319.59;;;6.41
63297;BMP280;49419;51.716;-4.948;2023-02-05T05:05:18;104323.13;;;6.35
63297;BMP280;49419;51.716;-4.948;2023-02-05T05:07:46;104326.81;;;6.30
63297;BMP280;49419;51.716;-4.948;2023-02-05T05:10:13;104353.09;;;6.29
63297;BMP280;49419;51.716;-4.948;2023-02-05T05:12:38;104361.31;;;6.26
63297;BMP280;49419;51.716;-4.948;2023-02-05T05:15:05;104360.31;;;6.17
63297;BMP280;49419;51.716;-4.948;2023-02-05T05:17:33;104381.59;;;6.03
63297;BMP280;49419;51.716;-4.948;2023-02-05T05:19:59;104395.69;;;5.92
63297;BMP280;49419;51.716;-4.948;2023-02-05T05:22:34;104391.41;;;5.84
63297;BMP280;49419;51.716;-4.948;2023-02-05T05:25:02;104386.53;;;5.79
63297;BMP280;49419;51.716;-4.948;2023-02-05T05:27:27;104386.56;;;5.72
63297;BMP280;49419;51.716;-4.948;2023-02-05T05:29:54;104391.88;;;5.67
63297;BMP280;49419;51.716;-4.948;2023-02-05T05:32:21;104393.75;;;5.54
63297;BMP280;49419;51.716;-4.948;2023-02-05T05:34:49;104408.03;;;5.45
63297;BMP280;49419;51.716;-4.948;2023-02-05T05:37:19;104395.09;;;5.43
63297;BMP280;49419;51.716;-4.948;2023-02-05T05:40:14;104388.34;;;5.44
63297;BMP280;49419;51.716;-4.948;2023-02-05T05:43:00;104383.03;;;5.49
63297;BMP280;49419;51.716;-4.948;2023-02-05T05:45:45;104374.81;;;5.52
63297;BMP280;49419;51.716;-4.948;2023-02-05T05:48:13;104365.41;;;5.44
63297;BMP280;49419;51.716;-4.948;2023-02-05T05:50:41;104377.25;;;5.43
63297;BMP280;49419;51.716;-4.948;2023-02-05T05:53:08;104364.56;;;5.37
63297;BMP280;49419;51.716;-4.948;2023-02-05T05:55:36;104362.19;;;5.38
63297;BMP280;49419;51.716;-4.948;2023-02-05T05:58:24;104370.50;;;5.44
63297;BMP280;49419;51.716;-4.948;2023-02-05T06:00:59;104367.59;;;5.48
63297;BMP280;49419;51.716;-4.948;2023-02-05T06:03:31;104362.81;;;5.51
63297;BMP280;49419;51.716;-4.948;2023-02-05T06:06:04;104366.28;;;5.51
63297;BMP280;49419;51.716;-4.948;2023-02-05T06:08:40;104359.91;;;5.55
63297;BMP280;49419;51.716;-4.948;2023-02-05T06:11:09;104362.59;;;5.56
63297;BMP280;49419;51.716;-4.948;2023-02-05T06:13:35;104365.66;;;5.61
63297;BMP280;49419;51.716;-4.948;2023-02-05T06:16:02;104354.22;;;5.57
63297;BMP280;49419;51.716;-4.948;2023-02-05T06:18:32;104376.63;;;5.60
63297;BMP280;49419;51.716;-4.948;2023-02-05T06:21:04;104389.94;;;5.57
63297;BMP280;49419;51.716;-4.948;2023-02-05T06:23:34;104381.00;;;5.54
63297;BMP280;49419;51.716;-4.948;2023-02-05T06:26:00;104375.72;;;5.59
63297;BMP280;49419;51.716;-4.948;2023-02-05T06:28:28;104366.00;;;5.64
63297;BMP280;49419;51.716;-4.948;2023-02-05T06:30:56;104391.09;;;5.75
63297;BMP280;49419;51.716;-4.948;2023-02-05T06:33:23;104398.00;;;5.76
63297;BMP280;49419;51.716;-4.948;2023-02-05T06:35:54;104380.00;;;5.74
63297;BMP280;49419;51.716;-4.948;2023-02-05T06:38:24;104387.81;;;5.76
63297;BMP280;49419;51.716;-4.948;2023-02-05T06:40:50;104390.34;;;5.76
63297;BMP280;49419;51.716;-4.948;2023-02-05T06:43:15;104402.72;;;5.79
63297;BMP280;49419;51.716;-4.948;2023-02-05T06:45:51;104389.97;;;5.79
63297;BMP280;49419;51.716;-4.948;2023-02-05T06:48:17;104395.94;;;5.87
63297;BMP280;49419;51.716;-4.948;2023-02-05T06:50:43;104389.75;;;5.85
63297;BMP280;49419;51.716;-4.948;2023-02-05T06:53:10;104404.84;;;5.90
63297;BMP280;49419;51.716;-4.948;2023-02-05T06:55:40;104410.00;;;5.83
63297;BMP280;49419;51.716;-4.948;2023-02-05T06:58:06;104408.22;;;5.76
63297;BMP280;49419;51.716;-4.948;2023-02-05T07:00:34;104400.06;;;5.71
63297;BMP280;49419;51.716;-4.948;2023-02-05T07:03:08;104392.63;;;5.59
63297;BMP280;49419;51.716;-4.948;2023-02-05T07:05:35;104389.25;;;5.44
63297;BMP280;49419;51.716;-4.948;2023-02-05T07:08:04;104398.59;;;5.37
63297;BMP280;49419;51.716;-4.948;2023-02-05T07:10:33;104406.69;;;5.26
63297;BMP280;49419;51.716;-4.948;2023-02-05T07:13:03;104390.34;;;5.17
63297;BMP280;49419;51.716;-4.948;2023-02-05T07:15:35;104391.09;;;5.16
63297;BMP280;49419;51.716;-4.948;2023-02-05T07:18:32;104403.41;;;5.20
63297;BMP280;49419;51.716;-4.948;2023-02-05T07:21:07;104409.25;;;5.19
63297;BMP280;49419;51.716;-4.948;2023-02-05T07:23:34;104422.34;;;5.22
63297;BMP280;49419;51.716;-4.948;2023-02-05T07:26:08;104419.63;;;5.21
63297;BMP280;49419;51.716;-4.948;2023-02-05T07:28:38;104419.63;;;5.21
63297;BMP280;49419;51.716;-4.948;2023-02-05T07:31:08;104403.50;;;5.07
63297;BMP280;49419;51.716;-4.948;2023-02-05T07:33:35;104416.81;;;5.04
63297;BMP280;49419;51.716;-4.948;2023-02-05T07:36:10;104426.06;;;4.97
63297;BMP280;49419;51.716;-4.948;2023-02-05T07:38:38;104424.63;;;4.99
63297;BMP280;49419;51.716;-4.948;2023-02-05T07:41:15;104411.72;;;4.97
63297;BMP280;49419;51.716;-4.948;2023-02-05T07:44:21;104409.00;;;4.96
63297;BMP280;49419;51.716;-4.948;2023-02-05T07:46:47;104408.13;;;4.88
63297;BMP280;49419;51.716;-4.948;2023-02-05T07:52:36;104418.34;;;4.68
63297;BMP280;49419;51.716;-4.948;2023-02-05T07:55:03;104425.09;;;4.60
63297;BMP280;49419;51.716;-4.948;2023-02-05T08:03:43;104440.03;;;4.57
63297;BMP280;49419;51.716;-4.948;2023-02-05T08:21:38;104436.34;;;4.83
63297;BMP280;49419;51.716;-4.948;2023-02-05T08:24:10;104436.50;;;4.84
63297;BMP280;49419;51.716;-4.948;2023-02-05T08:26:41;104446.84;;;4.93
63297;BMP280;49419;51.716;-4.948;2023-02-05T08:29:24;104450.50;;;4.95
63297;BMP280;49419;51.716;-4.948;2023-02-05T08:32:22;104447.00;;;5.01
63297;BMP280;49419;51.716;-4.948;2023-02-05T08:35:02;104436.22;;;5.11
63297;BMP280;49419;51.716;-4.948;2023-02-05T08:37:29;104451.13;;;5.21
63297;BMP280;49419;51.716;-4.948;2023-02-05T08:39:56;104458.72;;;5.28
63297;BMP280;49419;51.716;-4.948;2023-02-05T08:42:43;104462.91;;;5.28
63297;BMP280;49419;51.716;-4.948;2023-02-05T08:45:11;104453.78;;;5.30
63297;BMP280;49419;51.716;-4.948;2023-02-05T08:47:40;104467.44;;;5.30
63297;BMP280;49419;51.716;-4.948;2023-02-05T08:50:21;104469.81;;;5.29
63297;BMP280;49419;51.716;-4.948;2023-02-05T08:52:47;104452.91;;;5.22
63297;BMP280;49419;51.716;-4.948;2023-02-05T08:55:16;104456.56;;;5.24
63297;BMP280;49419;51.716;-4.948;2023-02-05T08:57:44;104452.88;;;5.29
63297;BMP280;49419;51.716;-4.948;2023-02-05T09:00:15;104456.50;;;5.38
63297;BMP280;49419;51.716;-4.948;2023-02-05T09:02:54;104452.09;;;5.44
63297;BMP280;49419;51.716;-4.948;2023-02-05T09:05:20;104457.91;;;5.50
63297;BMP280;49419;51.716;-4.948;2023-02-05T09:07:45;104464.38;;;5.62
63297;BMP280;49419;51.716;-4.948;2023-02-05T09:10:12;104465.06;;;5.68
63297;BMP280;49419;51.716;-4.948;2023-02-05T09:12:38;104475.78;;;5.79
63297;BMP280;49419;51.716;-4.948;2023-02-05T09:15:16;104473.56;;;5.82
63297;BMP280;49419;51.716;-4.948;2023-02-05T09:17:43;104472.41;;;5.94
63297;BMP280;49419;51.716;-4.948;2023-02-05T09:20:27;104482.34;;;6.06
63297;BMP280;49419;51.716;-4.948;2023-02-05T09:22:57;104466.97;;;6.13
63297;BMP280;49419;51.716;-4.948;2023-02-05T09:25:24;104475.34;;;6.19
63297;BMP280;49419;51.716;-4.948;2023-02-05T09:27:55;104476.75;;;6.24
63297;BMP280;49419;51.716;-4.948;2023-02-05T09:30:21;104482.75;;;6.24
63297;BMP280;49419;51.716;-4.948;2023-02-05T09:33:24;104476.84;;;6.32
63297;BMP280;49419;51.716;-4.948;2023-02-05T09:42:41;104478.00;;;6.42
63297;BMP280;49419;51.716;-4.948;2023-02-05T09:46:02;104461.34;;;6.53
63297;BMP280;49419;51.716;-4.948;2023-02-05T09:52:10;104448.06;;;6.86
63297;BMP280;49419;51.716;-4.948;2023-02-05T09:54:42;104447.94;;;6.93
63297;BMP280;49419;51.716;-4.948;2023-02-05T09:57:12;104449.69;;;7.01
63297;BMP280;49419;51.716;-4.948;2023-02-05T09:59:49;104451.09;;;7.05
63297;BMP280;49419;51.716;-4.948;2023-02-05T10:05:01;104448.38;;;7.19
63297;BMP280;49419;51.716;-4.948;2023-02-05T10:07:51;104445.06;;;7.20
63297;BMP280;49419;51.716;-4.948;2023-02-05T10:10:59;104456.03;;;7.35
63297;BMP280;49419;51.716;-4.948;2023-02-05T10:13:43;104459.22;;;7.40
63297;BMP280;49419;51.716;-4.948;2023-02-05T10:17:13;104469.53;;;7.49
63297;BMP280;49419;51.716;-4.948;2023-02-05T10:20:07;104463.75;;;7.58
63297;BMP280;49419;51.716;-4.948;2023-02-05T10:23:17;104467.84;;;7.65
63297;BMP280;49419;51.716;-4.948;2023-02-05T10:26:14;104459.03;;;7.69
63297;BMP280;49419;51.716;-4.948;2023-02-05T10:29:15;104472.34;;;7.82
63297;BMP280;49419;51.716;-4.948;2023-02-05T10:38:28;104464.41;;;8.11
63297;BMP280;49419;51.716;-4.948;2023-02-05T10:42:02;104460.53;;;8.15
63297;BMP280;49419;51.716;-4.948;2023-02-05T10:44:26;104452.41;;;8.19
63297;BMP280;49419;51.716;-4.948;2023-02-05T10:49:51;104455.03;;;8.27
63297;BMP280;49419;51.716;-4.948;2023-02-05T10:52:26;104462.72;;;8.35
63297;BMP280;49419;51.716;-4.948;2023-02-05T10:54:54;104450.50;;;8.33
63297;BMP280;49419;51.716;-4.948;2023-02-05T10:57:21;104462.91;;;8.45
63297;BMP280;49419;51.716;-4.948;2023-02-05T11:00:05;104460.53;;;8.55
63297;BMP280;49419;51.716;-4.948;2023-02-05T11:02:42;104455.28;;;8.62
63297;BMP280;49419;51.716;-4.948;2023-02-05T11:05:21;104473.28;;;8.79
63297;BMP280;49419;51.716;-4.948;2023-02-05T11:07:52;104459.91;;;8.90
63297;BMP280;49419;51.716;-4.948;2023-02-05T11:10:24;104458.69;;;9.03
63297;BMP280;49419;51.716;-4.948;2023-02-05T11:12:52;104465.66;;;9.12
63297;BMP280;49419;51.716;-4.948;2023-02-05T11:15:23;104475.19;;;9.30
63297;BMP280;49419;51.716;-4.948;2023-02-05T11:18:22;104462.34;;;9.38
63297;BMP280;49419;51.716;-4.948;2023-02-05T11:20:54;104471.13;;;9.49
63297;BMP280;49419;51.716;-4.948;2023-02-05T11:23:22;104478.50;;;9.54
63297;BMP280;49419;51.716;-4.948;2023-02-05T11:25:55;104472.91;;;9.58
63297;BMP280;49419;51.716;-4.948;2023-02-05T11:30:53;104475.44;;;9.75
63297;BMP280;49419;51.716;-4.948;2023-02-05T11:33:23;104474.06;;;9.87
63297;BMP280;49419;51.716;-4.948;2023-02-05T11:38:46;104475.63;;;9.93
63297;BMP280;49419;51.716;-4.948;2023-02-05T11:41:33;104453.56;;;9.95
63297;BMP280;49419;51.716;-4.948;2023-02-05T11:44:24;104446.03;;;9.96
63297;BMP280;49419;51.716;-4.948;2023-02-05T11:46:53;104450.22;;;10.04
63297;BMP280;49419;51.716;-4.948;2023-02-05T11:49:41;104452.19;;;10.07
63297;BMP280;49419;51.716;-4.948;2023-02-05T11:52:12;104450.94;;;10.12
63297;BMP280;49419;51.716;-4.948;2023-02-05T11:54:45;104445.97;;;10.13
63297;BMP280;49419;51.716;-4.948;2023-02-05T12:02:40;104442.25;;;10.36
63297;BMP280;49419;51.716;-4.948;2023-02-05T12:07:51;104450.28;;;10.31
63297;BMP280;49419;51.716;-4.948;2023-02-05T12:10:32;104447.56;;;10.29
63297;BMP280;49419;51.716;-4.948;2023-02-05T12:20:22;104441.97;;;10.33
63297;BMP280;49419;51.716;-4.948;2023-02-05T12:39:53;104410.59;;;10.72
63297;BMP280;49419;51.716;-4.948;2023-02-05T12:45:01;104404.75;;;10.65
63297;BMP280;49419;51.716;-4.948;2023-02-05T12:54:20;104384.28;;;10.75
63297;BMP280;49419;51.716;-4.948;2023-02-05T12:57:15;104375.50;;;10.73
63297;BMP280;49419;51.716;-4.948;2023-02-05T12:59:58;104371.63;;;10.68
63297;BMP280;49419;51.716;-4.948;2023-02-05T13:02:33;104371.06;;;10.62
63297;BMP280;49419;51.716;-4.948;2023-02-05T13:10:55;104366.06;;;10.37
63297;BMP280;49419;51.716;-4.948;2023-02-05T13:13:38;104352.50;;;10.29
63297;BMP280;49419;51.716;-4.948;2023-02-05T13:16:14;104361.56;;;10.34
63297;BMP280;49419;51.716;-4.948;2023-02-05T13:18:58;104341.59;;;10.40
63297;BMP280;49419;51.716;-4.948;2023-02-05T13:21:26;104345.81;;;10.40
63297;BMP280;49419;51.716;-4.948;2023-02-05T13:24:31;104346.72;;;10.40
63297;BMP280;49419;51.716;-4.948;2023-02-05T13:27:40;104347.63;;;10.41
63297;BMP280;49419;51.716;-4.948;2023-02-05T13:30:33;104340.97;;;10.43
63297;BMP280;49419;51.716;-4.948;2023-02-05T13:33:03;104334.94;;;10.42
63297;BMP280;49419;51.716;-4.948;2023-02-05T13:55:18;104327.47;;;10.72
63297;BMP280;49419;51.716;-4.948;2023-02-05T14:01:06;104320.22;;;11.04
63297;BMP280;49419;51.716;-4.948;2023-02-05T14:03:39;104314.31;;;11.05
63297;BMP280;49419;51.716;-4.948;2023-02-05T14:06:18;104326.47;;;11.16
63297;BMP280;49419;51.716;-4.948;2023-02-05T14:09:21;104311.25;;;11.09
63297;BMP280;49419;51.716;-4.948;2023-02-05T14:11:58;104318.19;;;11.10
63297;BMP280;49419;51.716;-4.948;2023-02-05T14:14:38;104307.69;;;10.99
63297;BMP280;49419;51.716;-4.948;2023-02-05T14:19:59;104316.50;;;10.83
63297;BMP280;49419;51.716;-4.948;2023-02-05T14:22:35;104326.84;;;10.74
63297;BMP280;49419;51.716;-4.948;2023-02-05T14:25:43;104306.97;;;10.63
63297;BMP280;49419;51.716;-4.948;2023-02-05T14:27:50;104308.50;;;10.61
63297;BMP280;49419;51.716;-4.948;2023-02-05T14:32:55;104315.44;;;10.62
63297;BMP280;49419;51.716;-4.948;2023-02-05T14:35:37;104317.38;;;10.65
63297;BMP280;49419;51.716;-4.948;2023-02-05T14:38:19;104310.72;;;10.67
63297;BMP280;49419;51.716;-4.948;2023-02-05T14:43:34;104309.03;;;10.67
63297;BMP280;49419;51.716;-4.948;2023-02-05T14:46:04;104308.63;;;10.63
63297;BMP280;49419;51.716;-4.948;2023-02-05T14:48:33;104308.25;;;10.50
63297;BMP280;49419;51.716;-4.948;2023-02-05T14:51:08;104311.19;;;10.45
63297;BMP280;49419;51.716;-4.948;2023-02-05T14:53:52;104303.06;;;10.40
63297;BMP280;49419;51.716;-4.948;2023-02-05T14:56:45;104290.84;;;10.38
63297;BMP280;49419;51.716;-4.948;2023-02-05T15:01:48;104291.84;;;10.22
63297;BMP280;49419;51.716;-4.948;2023-02-05T15:04:46;104301.34;;;10.23
63297;BMP280;49419;51.716;-4.948;2023-02-05T15:07:25;104300.00;;;10.18
63297;BMP280;49419;51.716;-4.948;2023-02-05T15:09:58;104286.78;;;10.13
63297;BMP280;49419;51.716;-4.948;2023-02-05T15:14:57;104290.97;;;10.13
63297;BMP280;49419;51.716;-4.948;2023-02-05T15:20:02;104260.94;;;10.12
63297;BMP280;49419;51.716;-4.948;2023-02-05T15:22:37;104265.59;;;10.16
63297;BMP280;49419;51.716;-4.948;2023-02-05T15:28:41;104274.56;;;10.11
63297;BMP280;49419;51.716;-4.948;2023-02-05T15:31:32;104268.63;;;10.12
63297;BMP280;49419;51.716;-4.948;2023-02-05T15:36:40;104276.53;;;10.05
63297;BMP280;49419;51.716;-4.948;2023-02-05T15:41:36;104263.69;;;10.05
63297;BMP280;49419;51.716;-4.948;2023-02-05T15:44:18;104266.25;;;10.05
63297;BMP280;49419;51.716;-4.948;2023-02-05T15:46:46;104249.09;;;9.95
63297;BMP280;49419;51.716;-4.948;2023-02-05T15:49:14;104253.06;;;9.92
63297;BMP280;49419;51.716;-4.948;2023-02-05T15:51:39;104234.63;;;9.88
63297;BMP280;49419;51.716;-4.948;2023-02-05T15:54:05;104252.16;;;9.83
63297;BMP280;49419;51.716;-4.948;2023-02-05T15:56:39;104253.22;;;9.85
63297;BMP280;49419;51.716;-4.948;2023-02-05T16:01:40;104264.97;;;9.83
63297;BMP280;49419;51.716;-4.948;2023-02-05T16:04:36;104269.34;;;9.84
63297;BMP280;49419;51.716;-4.948;2023-02-05T16:07:45;104273.31;;;9.81
63297;BMP280;49419;51.716;-4.948;2023-02-05T16:10:26;104266.06;;;9.77
63297;BMP280;49419;51.716;-4.948;2023-02-05T16:13:16;104278.16;;;9.78
63297;BMP280;49419;51.716;-4.948;2023-02-05T16:16:09;104276.31;;;9.77
63297;BMP280;49419;51.716;-4.948;2023-02-05T16:18:40;104268.78;;;9.78
63297;BMP280;49419;51.716;-4.948;2023-02-05T16:23:48;104272.25;;;9.79
63297;BMP280;49419;51.716;-4.948;2023-02-05T16:26:47;104260.31;;;9.79
63297;BMP280;49419;51.716;-4.948;2023-02-05T16:29:36;104246.59;;;9.79
63297;BMP280;49419;51.716;-4.948;2023-02-05T16:32:32;104243.91;;;9.77
63297;BMP280;49419;51.716;-4.948;2023-02-05T16:35:03;104246.47;;;9.77
63297;BMP280;49419;51.716;-4.948;2023-02-05T16:37:30;104241.00;;;9.74
63297;BMP280;49419;51.716;-4.948;2023-02-05T16:39:57;104244.81;;;9.69
63297;BMP280;49419;51.716;-4.948;2023-02-05T16:42:40;104251.78;;;9.70
63297;BMP280;49419;51.716;-4.948;2023-02-05T16:45:24;104239.88;;;9.62
63297;BMP280;49419;51.716;-4.948;2023-02-05T16:48:21;104243.66;;;9.58
63297;BMP280;49419;51.716;-4.948;2023-02-05T16:50:48;104232.69;;;9.50
63297;BMP280;49419;51.716;-4.948;2023-02-05T16:53:26;104240.72;;;9.45
63297;BMP280;49419;51.716;-4.948;2023-02-05T16:56:11;104244.22;;;9.37
63297;BMP280;49419;51.716;-4.948;2023-02-05T16:58:44;104242.44;;;9.28
63297;BMP280;49419;51.716;-4.948;2023-02-05T17:01:10;104236.84;;;9.23
63297;BMP280;49419;51.716;-4.948;2023-02-05T17:03:38;104239.59;;;9.16
63297;BMP280;49419;51.716;-4.948;2023-02-05T17:06:15;104234.91;;;9.12
63297;BMP280;49419;51.716;-4.948;2023-02-05T17:08:42;104242.91;;;9.07
63297;BMP280;49419;51.716;-4.948;2023-02-05T17:11:40;104240.41;;;8.98
63297;BMP280;49419;51.716;-4.948;2023-02-05T17:14:26;104249.25;;;8.94
63297;BMP280;49419;51.716;-4.948;2023-02-05T17:17:22;104244.00;;;8.84
63297;BMP280;49419;51.716;-4.948;2023-02-05T17:22:30;104234.53;;;8.66
63297;BMP280;49419;51.716;-4.948;2023-02-05T17:24:56;104239.81;;;8.67
63297;BMP280;49419;51.716;-4.948;2023-02-05T17:27:36;104233.47;;;8.64
63297;BMP280;49419;51.716;-4.948;2023-02-05T17:30:05;104228.66;;;8.59
63297;BMP280;49419;51.716;-4.948;2023-02-05T17:32:31;104240.41;;;8.57
63297;BMP280;49419;51.716;-4.948;2023-02-05T17:34:57;104229.25;;;8.48
63297;BMP280;49419;51.716;-4.948;2023-02-05T17:37:24;104235.31;;;8.48